Station Historical Data
Daily Summary for August 17, 2012 Units:  English    Metric   Both
« Previous Day
Next Day »
Daily Weekly Monthly Yearly Custom
  High: Low: Average:
Temperature: 81.4 °F 65.8 °F 71.9 °F
Dew Point: 73.8 °F 63.7 °F 68.1 °F
Humidity: 94% 68% 88%
Wind Speed: 18.0mph 0.0mph 3mph
Wind Gust: 19.0mph - -
Wind- - SSW
Pressure: 30.00 in 29.86 in -
Precipitation: 0.02 in    
Historical Graphs
 
 
Tabular Data for August 17, 2012
Time Temperature Dew Point Pressure Wind Wind Speed Wind Gust Humidity Rainfall Rate (Hourly) Conditions
00:00 77.3 °F 73.8 °F 29.92 in SSE 4.0 mph 10.0 mph 89% 0.00 in
00:05 77.3 °F 73.8 °F 29.92 in SSE 3.0 mph 6.0 mph 89% 0.00 in
00:10 77.1 °F 73.6 °F 29.92 in SSE 5.0 mph 6.0 mph 89% 0.00 in
00:16 76.9 °F 73.4 °F 29.91 in SSE 4.0 mph 5.0 mph 89% 0.00 in
00:21 76.8 °F 73.7 °F 29.92 in South 4.0 mph 4.0 mph 90% 0.00 in
00:26 76.7 °F 73.6 °F 29.92 in SW 2.0 mph 4.0 mph 90% 0.00 in
00:31 76.7 °F 73.2 °F 29.91 in South 6.0 mph 6.0 mph 89% 0.00 in
00:36 76.9 °F 73.4 °F 29.91 in SSE 4.0 mph 7.0 mph 89% 0.00 in
00:41 77.0 °F 73.5 °F 29.90 in SSE 5.0 mph 6.0 mph 89% 0.00 in
00:46 76.9 °F 73.4 °F 29.90 in SE 5.0 mph 8.0 mph 89% 0.00 in
00:51 76.9 °F 73.4 °F 29.90 in SSE 5.0 mph 7.0 mph 89% 0.00 in
00:56 76.8 °F 73.3 °F 29.91 in SE 2.0 mph 5.0 mph 89% 0.00 in
01:01 76.7 °F 73.2 °F 29.92 in South 2.0 mph 3.0 mph 89% 0.00 in
01:06 76.6 °F 73.1 °F 29.92 in Calm   3.0 mph 89% 0.00 in
01:11 76.6 °F 73.4 °F 29.95 in NNW 10.0 mph 10.0 mph 90% 0.00 in
01:16 74.2 °F 68.4 °F 29.95 in NNE 11.0 mph 17.0 mph 82% 0.00 in
01:22 72.2 °F 67.4 °F 29.95 in North 15.0 mph 16.0 mph 85% 0.00 in
01:27 70.9 °F 66.8 °F 29.96 in NNW 5.0 mph 14.0 mph 87% 0.00 in
01:32 69.6 °F 66.5 °F 29.98 in NNW 9.0 mph 11.0 mph 90% 0.00 in
01:37 68.6 °F 65.9 °F 29.98 in NNW 12.0 mph 15.0 mph 91% 0.00 in
01:42 67.8 °F 65.7 °F 29.98 in NNW 13.0 mph 19.0 mph 93% 0.00 in
01:47 67.3 °F 65.2 °F 29.97 in North 18.0 mph 18.0 mph 93% 0.00 in
01:52 67.1 °F 65.0 °F 29.97 in NNW 6.0 mph 15.0 mph 93% 0.00 in
01:57 66.9 °F 65.1 °F 29.98 in NE 9.0 mph 15.0 mph 94% 0.00 in
02:02 66.8 °F 65.0 °F 29.97 in ENE 9.0 mph 15.0 mph 94% 0.00 in
02:07 66.8 °F 65.0 °F 29.96 in NNE 8.0 mph 13.0 mph 94% 0.00 in
02:12 66.7 °F 64.9 °F 29.97 in North 8.0 mph 11.0 mph 94% 0.00 in
02:17 66.8 °F 65.0 °F 29.98 in NNE 6.0 mph 12.0 mph 94% 0.00 in
02:22 66.8 °F 64.7 °F 29.97 in NE 5.0 mph 14.0 mph 93% 0.00 in
02:27 66.8 °F 64.7 °F 29.97 in ENE 5.0 mph 11.0 mph 93% 0.00 in
02:32 66.7 °F 64.6 °F 29.96 in NE 7.0 mph 16.0 mph 93% 0.00 in
02:37 66.7 °F 64.6 °F 29.98 in NNE 8.0 mph 10.0 mph 93% 0.00 in
02:42 66.6 °F 64.5 °F 29.99 in NNE 2.0 mph 6.0 mph 93% 0.00 in
02:47 66.4 °F 64.3 °F 30.00 in NW 8.0 mph 11.0 mph 93% 0.00 in
02:52 66.3 °F 64.5 °F 29.99 in NNE 4.0 mph 9.0 mph 94% 0.00 in
02:57 66.3 °F 64.5 °F 29.99 in ENE 5.0 mph 6.0 mph 94% 0.00 in
03:02 66.2 °F 64.1 °F 29.97 in NE 3.0 mph 8.0 mph 93% 0.00 in
03:07 66.2 °F 64.4 °F 29.97 in NW 3.0 mph 8.0 mph 94% 0.00 in
03:12 66.1 °F 64.3 °F 29.97 in ENE 2.0 mph 5.0 mph 94% 0.00 in
03:17 66.0 °F 64.2 °F 29.97 in East 7.0 mph 8.0 mph 94% 0.00 in
03:22 66.0 °F 63.9 °F 29.96 in ENE 7.0 mph 7.0 mph 93% 0.00 in
03:27 66.0 °F 63.9 °F 29.97 in NE 2.0 mph 7.0 mph 93% 0.00 in
03:32 66.0 °F 63.9 °F 29.97 in SE 2.0 mph 6.0 mph 93% 0.00 in
03:37 66.0 °F 63.9 °F 29.98 in SE 2.0 mph 7.0 mph 93% 0.00 in
03:42 66.0 °F 63.9 °F 29.98 in ESE 6.0 mph 8.0 mph 93% 0.00 in
03:47 66.1 °F 64.0 °F 29.98 in SSE 4.0 mph 6.0 mph 93% 0.00 in
03:52 66.0 °F 63.9 °F 29.97 in East 3.0 mph 5.0 mph 93% 0.00 in
03:57 66.0 °F 63.9 °F 29.97 in Calm   1.0 mph 93% 0.00 in
04:03 66.0 °F 64.2 °F 29.97 in ENE 4.0 mph 5.0 mph 94% 0.00 in
04:08 66.0 °F 63.9 °F 29.96 in East 2.0 mph 6.0 mph 93% 0.00 in
04:13 66.0 °F 63.9 °F 29.95 in ESE 3.0 mph 5.0 mph 93% 0.00 in
04:18 65.9 °F 63.8 °F 29.95 in East 6.0 mph 6.0 mph 93% 0.00 in
04:23 65.9 °F 63.8 °F 29.94 in East 4.0 mph 6.0 mph 93% 0.00 in
04:28 65.9 °F 63.8 °F 29.94 in East 6.0 mph 7.0 mph 93% 0.00 in
04:33 65.9 °F 63.8 °F 29.94 in SE 4.0 mph 7.0 mph 93% 0.00 in
04:38 65.8 °F 63.7 °F 29.94 in SE 3.0 mph 5.0 mph 93% 0.00 in
04:43 65.8 °F 64.0 °F 29.94 in SE 3.0 mph 5.0 mph 94% 0.00 in
04:48 65.8 °F 63.7 °F 29.93 in SE 3.0 mph 6.0 mph 93% 0.00 in
04:53 65.8 °F 63.7 °F 29.93 in SSE 6.0 mph 8.0 mph 93% 0.00 in
04:58 65.8 °F 63.7 °F 29.94 in SSE 3.0 mph 6.0 mph 93% 0.00 in
05:03 65.8 °F 63.7 °F 29.94 in SSE 5.0 mph 7.0 mph 93% 0.00 in
05:08 65.8 °F 63.7 °F 29.93 in SE 5.0 mph 9.0 mph 93% 0.00 in
05:13 65.8 °F 63.7 °F 29.93 in SSE 9.0 mph 9.0 mph 93% 0.00 in
05:18 65.8 °F 63.7 °F 29.92 in SE 8.0 mph 12.0 mph 93% 0.00 in
05:23 65.8 °F 63.7 °F 29.91 in SSW 4.0 mph 11.0 mph 93% 0.00 in
05:28 65.8 °F 63.7 °F 29.91 in SSE 4.0 mph 8.0 mph 93% 0.00 in
05:33 65.9 °F 63.8 °F 29.90 in SSE 5.0 mph 7.0 mph 93% 0.00 in
05:38 65.8 °F 63.7 °F 29.88 in ESE 6.0 mph 11.0 mph 93% 0.00 in
05:43 65.8 °F 64.0 °F 29.86 in ESE 11.0 mph 12.0 mph 94% 0.00 in
05:48 65.8 °F 63.7 °F 29.86 in ESE 9.0 mph 12.0 mph 93% 0.00 in
05:53 65.8 °F 63.7 °F 29.86 in SE 11.0 mph 12.0 mph 93% 0.00 in
05:58 65.9 °F 63.8 °F 29.86 in SSE 10.0 mph 14.0 mph 93% 0.00 in
06:03 65.9 °F 63.8 °F 29.86 in SE 8.0 mph 11.0 mph 93% 0.00 in
06:08 65.9 °F 63.8 °F 29.86 in South 9.0 mph 9.0 mph 93% 0.00 in
06:13 66.0 °F 64.2 °F 29.86 in SE 6.0 mph 7.0 mph 94% 0.00 in
06:18 66.0 °F 63.9 °F 29.86 in SE 7.0 mph 9.0 mph 93% 0.00 in
06:23 66.0 °F 63.9 °F 29.86 in SE 7.0 mph 8.0 mph 93% 0.00 in
06:28 66.1 °F 64.0 °F 29.86 in SSE 7.0 mph 9.0 mph 93% 0.00 in
06:33 66.1 °F 64.0 °F 29.88 in SW 10.0 mph 11.0 mph 93% 0.00 in
06:38 66.2 °F 64.1 °F 29.89 in WSW 8.0 mph 10.0 mph 93% 0.00 in
06:43 66.2 °F 64.1 °F 29.89 in SW 6.0 mph 10.0 mph 93% 0.00 in
06:48 66.2 °F 64.1 °F 29.90 in WNW 3.0 mph 8.0 mph 93% 0.00 in
06:53 66.2 °F 64.1 °F 29.91 in NW 3.0 mph 4.0 mph 93% 0.00 in
06:58 66.3 °F 64.2 °F 29.91 in WNW 4.0 mph 6.0 mph 93% 0.00 in
07:03 66.3 °F 64.2 °F 29.91 in NE 3.0 mph 5.0 mph 93% 0.00 in
07:09 66.4 °F 64.3 °F 29.91 in NNW 1.0 mph 2.0 mph 93% 0.00 in
07:14 66.4 °F 64.3 °F 29.91 in Calm     93% 0.00 in
07:19 66.4 °F 64.3 °F 29.91 in Calm     93% 0.00 in
07:24 66.5 °F 64.4 °F 29.91 in ENE 1.0 mph 2.0 mph 93% 0.00 in
07:29 66.6 °F 64.5 °F 29.91 in ESE 1.0 mph 3.0 mph 93% 0.00 in
07:34 66.7 °F 64.6 °F 29.91 in SE 2.0 mph 4.0 mph 93% 0.00 in
07:39 66.8 °F 64.7 °F 29.92 in WSW 2.0 mph 4.0 mph 93% 0.00 in
07:44 66.9 °F 64.8 °F 29.92 in SE 2.0 mph 3.0 mph 93% 0.00 in
07:49 66.9 °F 64.8 °F 29.92 in WSW 1.0 mph 2.0 mph 93% 0.00 in
07:54 66.9 °F 64.8 °F 29.91 in SE 1.0 mph 3.0 mph 93% 0.00 in
07:59 67.0 °F 64.9 °F 29.92 in West 1.0 mph 3.0 mph 93% 0.00 in
08:04 67.0 °F 64.9 °F 29.92 in West 2.0 mph 2.0 mph 93% 0.00 in
08:09 67.0 °F 64.9 °F 29.91 in West 1.0 mph 2.0 mph 93% 0.00 in
08:14 67.1 °F 65.0 °F 29.91 in West 1.0 mph 1.0 mph 93% 0.00 in
08:19 67.1 °F 65.0 °F 29.91 in NW 1.0 mph 2.0 mph 93% 0.00 in
08:24 67.2 °F 65.1 °F 29.91 in NW 2.0 mph 3.0 mph 93% 0.00 in
08:29 67.3 °F 65.2 °F 29.91 in North 1.0 mph 2.0 mph 93% 0.00 in
08:34 67.4 °F 65.3 °F 29.91 in North 1.0 mph 2.0 mph 93% 0.00 in
08:39 67.5 °F 65.4 °F 29.91 in NW 1.0 mph 2.0 mph 93% 0.00 in
08:44 67.7 °F 65.6 °F 29.92 in NNW 2.0 mph 3.0 mph 93% 0.00 in
08:49 67.7 °F 65.6 °F 29.91 in Calm   2.0 mph 93% 0.00 in
08:54 68.0 °F 65.9 °F 29.91 in North 3.0 mph 3.0 mph 93% 0.00 in
08:59 68.0 °F 65.9 °F 29.92 in NNE 3.0 mph 4.0 mph 93% 0.00 in
09:04 68.0 °F 65.9 °F 29.92 in NW 4.0 mph 4.0 mph 93% 0.00 in
09:09 67.8 °F 65.7 °F 29.92 in West 3.0 mph 4.0 mph 93% 0.00 in
09:14 67.9 °F 65.8 °F 29.93 in WNW 3.0 mph 3.0 mph 93% 0.00 in
09:19 67.9 °F 65.8 °F 29.93 in WNW 4.0 mph 5.0 mph 93% 0.00 in
09:25 67.9 °F 65.8 °F 29.93 in NW 4.0 mph 6.0 mph 93% 0.00 in
09:30 68.4 °F 66.3 °F 29.93 in WNW 1.0 mph 3.0 mph 93% 0.00 in
09:35 68.3 °F 66.2 °F 29.92 in NNE 2.0 mph 3.0 mph 93% 0.00 in
09:40 68.4 °F 66.3 °F 29.92 in NW 2.0 mph 3.0 mph 93% 0.00 in
09:45 68.5 °F 66.4 °F 29.93 in NNW 1.0 mph 2.0 mph 93% 0.00 in
09:50 68.4 °F 66.3 °F 29.93 in WSW 1.0 mph 2.0 mph 93% 0.00 in
09:55 68.5 °F 66.4 °F 29.93 in West 1.0 mph 2.0 mph 93% 0.00 in
10:00 68.4 °F 66.3 °F 29.93 in West 1.0 mph 2.0 mph 93% 0.00 in
10:05 68.5 °F 66.4 °F 29.94 in West 1.0 mph 2.0 mph 93% 0.00 in
10:10 69.0 °F 66.9 °F 29.94 in West 2.0 mph 3.0 mph 93% 0.00 in
10:15 68.9 °F 66.8 °F 29.95 in WNW 1.0 mph 5.0 mph 93% 0.00 in
10:20 69.3 °F 67.2 °F 29.95 in West 1.0 mph 3.0 mph 93% 0.00 in
10:25 69.5 °F 67.4 °F 29.95 in WSW 2.0 mph 4.0 mph 93% 0.00 in
10:30 70.0 °F 67.9 °F 29.95 in SW 3.0 mph 3.0 mph 93% 0.00 in
10:35 70.2 °F 68.1 °F 29.95 in West 3.0 mph 4.0 mph 93% 0.00 in
10:40 70.4 °F 68.3 °F 29.95 in West 3.0 mph 3.0 mph 93% 0.00 in
10:45 70.5 °F 68.1 °F 29.95 in Calm   3.0 mph 92% 0.00 in
10:50 71.0 °F 68.6 °F 29.94 in NNW 4.0 mph 4.0 mph 92% 0.00 in
10:55 70.9 °F 68.5 °F 29.94 in North 2.0 mph 3.0 mph 92% 0.00 in
11:00 71.0 °F 68.2 °F 29.94 in North 1.0 mph 4.0 mph 91% 0.00 in
11:05 71.4 °F 69.0 °F 29.95 in NE 1.0 mph 2.0 mph 92% 0.00 in
11:10 71.6 °F 68.5 °F 29.94 in WNW 2.0 mph 4.0 mph 90% 0.00 in
11:15 71.6 °F 68.2 °F 29.95 in NW 4.0 mph 6.0 mph 89% 0.00 in
11:20 71.8 °F 68.4 °F 29.95 in NW 2.0 mph 6.0 mph 89% 0.00 in
11:25 72.1 °F 68.3 °F 29.96 in SW 3.0 mph 6.0 mph 88% 0.00 in
11:30 72.6 °F 68.8 °F 29.96 in WNW 4.0 mph 6.0 mph 88% 0.00 in
11:35 72.8 °F 69.0 °F 29.96 in WNW 3.0 mph 5.0 mph 88% 0.00 in
11:40 73.0 °F 69.2 °F 29.96 in WNW 2.0 mph 6.0 mph 88% 0.00 in
11:45 73.2 °F 69.1 °F 29.96 in WSW 3.0 mph 5.0 mph 87% 0.00 in
11:50 73.6 °F 69.5 °F 29.96 in SW 4.0 mph 5.0 mph 87% 0.00 in
11:55 73.8 °F 69.7 °F 29.96 in WSW 5.0 mph 7.0 mph 87% 0.00 in
12:00 73.9 °F 69.1 °F 29.96 in West 4.0 mph 8.0 mph 85% 0.00 in
12:05 73.6 °F 69.2 °F 29.96 in WSW 3.0 mph 6.0 mph 86% 0.00 in
12:10 73.7 °F 69.3 °F 29.97 in West 4.0 mph 5.0 mph 86% 0.00 in
12:15 74.1 °F 69.7 °F 29.97 in West 4.0 mph 4.0 mph 86% 0.00 in
12:20 74.4 °F 68.9 °F 29.97 in WSW 4.0 mph 7.0 mph 83% 0.00 in
12:25 74.3 °F 69.2 °F 29.96 in West 7.0 mph 7.0 mph 84% 0.00 in
12:30 74.4 °F 69.6 °F 29.97 in NW 2.0 mph 6.0 mph 85% 0.00 in
12:35 74.6 °F 69.4 °F 29.96 in NNW 5.0 mph 7.0 mph 84% 0.00 in
12:40 74.6 °F 69.8 °F 29.96 in NW 2.0 mph 6.0 mph 85% 0.00 in
12:45 74.6 °F 69.4 °F 29.96 in WNW 3.0 mph 5.0 mph 84% 0.00 in
12:50 74.9 °F 70.1 °F 29.96 in South 1.0 mph 3.0 mph 85% 0.00 in
12:55 75.4 °F 69.9 °F 29.96 in WNW 6.0 mph 6.0 mph 83% 0.00 in
13:00 75.7 °F 69.5 °F 29.96 in SSW 2.0 mph 4.0 mph 81% 0.00 in
13:05 76.0 °F 70.5 °F 29.95 in WNW 5.0 mph 8.0 mph 83% 0.00 in
13:10 75.7 °F 69.5 °F 29.95 in WSW 2.0 mph 7.0 mph 81% 0.00 in
13:15 75.8 °F 69.6 °F 29.95 in WNW 4.0 mph 6.0 mph 81% 0.00 in
13:20 75.7 °F 69.8 °F 29.95 in WSW 5.0 mph 5.0 mph 82% 0.00 in
13:25 75.8 °F 69.9 °F 29.95 in WSW 2.0 mph 4.0 mph 82% 0.00 in
13:30 75.9 °F 70.0 °F 29.95 in Calm   5.0 mph 82% 0.00 in
13:35 76.2 °F 69.9 °F 29.95 in WNW 3.0 mph 7.0 mph 81% 0.00 in
13:40 76.0 °F 69.8 °F 29.95 in West 4.0 mph 4.0 mph 81% 0.00 in
13:46 75.8 °F 69.6 °F 29.95 in NW 5.0 mph 5.0 mph 81% 0.00 in
13:51 75.7 °F 69.8 °F 29.94 in West 3.0 mph 5.0 mph 82% 0.00 in
13:56 76.1 °F 69.8 °F 29.94 in Calm   2.0 mph 81% 0.00 in
14:01 76.7 °F 70.4 °F 29.94 in SW 1.0 mph 5.0 mph 81% 0.00 in
14:06 77.0 °F 70.0 °F 29.94 in Calm   5.0 mph 79% 0.00 in
14:11 77.6 °F 70.6 °F 29.94 in NW 3.0 mph 5.0 mph 79% 0.00 in
14:16 77.9 °F 71.2 °F 29.94 in WNW 3.0 mph 5.0 mph 80% 0.00 in
14:21 77.8 °F 70.8 °F 29.94 in NW 3.0 mph 5.0 mph 79% 0.00 in
14:26 77.3 °F 69.9 °F 29.94 in NW 5.0 mph 5.0 mph 78% 0.00 in
14:31 76.9 °F 69.5 °F 29.93 in NW 1.0 mph 5.0 mph 78% 0.00 in
14:36 77.0 °F 69.6 °F 29.93 in West 5.0 mph 5.0 mph 78% 0.00 in
14:41 77.5 °F 70.1 °F 29.93 in NW 1.0 mph 2.0 mph 78% 0.00 in
14:46 77.6 °F 69.8 °F 29.93 in WNW 7.0 mph 7.0 mph 77% 0.00 in
14:51 77.3 °F 68.8 °F 29.93 in WNW 3.0 mph 7.0 mph 75% 0.00 in
14:56 77.5 °F 70.1 °F 29.93 in WSW 2.0 mph 6.0 mph 78% 0.00 in
15:01 77.7 °F 69.2 °F 29.92 in WNW 2.0 mph 5.0 mph 75% 0.00 in
15:06 77.9 °F 69.3 °F 29.92 in NW 3.0 mph 4.0 mph 75% 0.00 in
15:11 78.4 °F 70.2 °F 29.92 in North 2.0 mph 3.0 mph 76% 0.00 in
15:16 79.0 °F 70.0 °F 29.91 in NW 2.0 mph 5.0 mph 74% 0.00 in
15:21 79.5 °F 71.3 °F 29.91 in WNW 7.0 mph 7.0 mph 76% 0.00 in
15:26 79.3 °F 71.5 °F 29.91 in NW 2.0 mph 7.0 mph 77% 0.00 in
15:31 79.1 °F 69.7 °F 29.91 in WNW 3.0 mph 5.0 mph 73% 0.00 in
15:36 79.2 °F 70.6 °F 29.91 in West 5.0 mph 5.0 mph 75% 0.00 in
15:41 79.6 °F 69.8 °F 29.91 in West 2.0 mph 6.0 mph 72% 0.00 in
15:46 80.2 °F 71.2 °F 29.90 in Calm   4.0 mph 74% 0.00 in
15:51 80.3 °F 70.1 °F 29.90 in NE 5.0 mph 5.0 mph 71% 0.00 in
15:56 80.4 °F 71.4 °F 29.90 in NNW 2.0 mph 4.0 mph 74% 0.00 in
16:01 80.4 °F 71.4 °F 29.90 in NNW 3.0 mph 4.0 mph 74% 0.00 in
16:06 79.9 °F 70.5 °F 29.90 in Calm   4.0 mph 73% 0.00 in
16:11 80.0 °F 71.0 °F 29.90 in NW 4.0 mph 4.0 mph 74% 0.00 in
16:16 80.3 °F 71.3 °F 29.90 in West 2.0 mph 3.0 mph 74% 0.00 in
16:21 80.4 °F 70.6 °F 29.89 in WNW 3.0 mph 6.0 mph 72% 0.00 in
16:26 80.6 °F 70.8 °F 29.89 in West 4.0 mph 6.0 mph 72% 0.00 in
16:31 80.5 °F 69.4 °F 29.89 in West 3.0 mph 7.0 mph 69% 0.00 in
16:36 80.9 °F 70.6 °F 29.89 in Calm   3.0 mph 71% 0.00 in
16:41 81.4 °F 71.1 °F 29.88 in NNE 3.0 mph 3.0 mph 71% 0.00 in
16:46 80.8 °F 69.3 °F 29.88 in WNW 2.0 mph 5.0 mph 68% 0.00 in
16:51 80.5 °F 69.8 °F 29.88 in Calm   3.0 mph 70% 0.00 in
16:56 80.6 °F 69.9 °F 29.88 in Calm   3.0 mph 70% 0.00 in
17:01 80.6 °F 71.2 °F 29.88 in NE 3.0 mph 4.0 mph 73% 0.00 in
17:06 79.6 °F 71.0 °F 29.88 in NE 3.0 mph 4.0 mph 75% 0.00 in
17:11 78.8 °F 71.4 °F 29.88 in NNE 2.0 mph 4.0 mph 78% 0.00 in
17:17 78.3 °F 71.3 °F 29.88 in NE 3.0 mph 4.0 mph 79% 0.00 in
17:22 77.9 °F 70.9 °F 29.88 in NE 1.0 mph 4.0 mph 79% 0.00 in
17:27 77.7 °F 71.0 °F 29.88 in NNE 1.0 mph 2.0 mph 80% 0.00 in
17:32 77.5 °F 71.2 °F 29.88 in NE 1.0 mph 2.0 mph 81% 0.00 in
17:37 77.4 °F 71.1 °F 29.88 in Calm   1.0 mph 81% 0.00 in
17:42 77.3 °F 71.0 °F 29.88 in Calm   2.0 mph 81% 0.00 in
17:47 77.3 °F 71.7 °F 29.88 in ESE 1.0 mph 1.0 mph 83% 0.00 in
17:52 77.0 °F 71.8 °F 29.88 in Calm   1.0 mph 84% 0.00 in
17:57 77.0 °F 71.8 °F 29.88 in ENE 1.0 mph 1.0 mph 84% 0.00 in
18:02 76.9 °F 71.7 °F 29.88 in Calm   1.0 mph 84% 0.00 in
18:07 76.9 °F 71.7 °F 29.88 in East 1.0 mph 1.0 mph 84% 0.00 in
18:12 77.0 °F 71.1 °F 29.87 in East 1.0 mph 1.0 mph 82% 0.00 in
18:17 77.2 °F 71.3 °F 29.88 in Calm   1.0 mph 82% 0.00 in
18:22 77.3 °F 71.4 °F 29.88 in Calm     82% 0.00 in
18:27 77.4 °F 71.8 °F 29.88 in Calm   1.0 mph 83% 0.00 in
18:32 77.3 °F 71.7 °F 29.88 in Calm   1.0 mph 83% 0.00 in
18:37 77.2 °F 72.0 °F 29.88 in Calm   1.0 mph 84% 0.00 in
18:42 77.0 °F 72.2 °F 29.88 in Calm     85% 0.00 in
18:47 76.8 °F 71.9 °F 29.88 in Calm     85% 0.00 in
18:52 76.6 °F 72.1 °F 29.88 in Calm   1.0 mph 86% 0.00 in
18:57 76.5 °F 72.0 °F 29.88 in ENE 1.0 mph 1.0 mph 86% 0.00 in
19:02 76.4 °F 72.2 °F 29.88 in West 1.0 mph 2.0 mph 87% 0.00 in
19:07 76.3 °F 72.5 °F 29.87 in West 1.0 mph 1.0 mph 88% 0.00 in
19:12 76.0 °F 72.2 °F 29.88 in Calm     88% 0.00 in
19:17 75.8 °F 72.3 °F 29.88 in Calm     89% 0.00 in
19:22 75.7 °F 71.9 °F 29.88 in NNW 1.0 mph 2.0 mph 88% 0.00 in
19:27 75.5 °F 72.0 °F 29.88 in NNW 3.0 mph 5.0 mph 89% 0.00 in
19:32 74.6 °F 71.2 °F 29.89 in NW 5.0 mph 10.0 mph 89% 0.00 in
19:37 73.7 °F 70.9 °F 29.89 in NNE 3.0 mph 8.0 mph 91% 0.00 in
19:42 73.0 °F 70.5 °F 29.89 in North 3.0 mph 7.0 mph 92% 0.00 in
19:44 72.9 °F 70.4 °F 29.89 in NNE 3.0 mph 5.0 mph 92% 0.00 in
19:49 72.6 °F 70.2 °F 29.89 in North 3.0 mph 4.0 mph 92% 0.00 in
19:54 72.4 °F 69.9 °F 29.89 in NNE 1.0 mph 4.0 mph 92% 0.00 in
19:59 72.2 °F 69.8 °F 29.89 in NNE 3.0 mph 4.0 mph 92% 0.00 in
20:04 72.1 °F 69.7 °F 29.89 in NE 3.0 mph 5.0 mph 92% 0.00 in
20:09 71.9 °F 69.4 °F 29.89 in North 3.0 mph 4.0 mph 92% 0.00 in
20:14 71.9 °F 69.4 °F 29.89 in NNW 3.0 mph 4.0 mph 92% 0.00 in
20:19 71.8 °F 69.3 °F 29.89 in NNE 1.0 mph 4.0 mph 92% 0.00 in
20:24 71.7 °F 69.3 °F 29.89 in NNE 1.0 mph 3.0 mph 92% 0.00 in
20:29 71.6 °F 69.2 °F 29.89 in NE 1.0 mph 4.0 mph 92% 0.00 in
20:34 71.6 °F 69.2 °F 29.89 in NNE 1.0 mph 2.0 mph 92% 0.00 in
20:39 71.5 °F 69.1 °F 29.89 in Calm   2.0 mph 92% 0.00 in
20:44 71.5 °F 69.1 °F 29.89 in NNE 1.0 mph 2.0 mph 92% 0.00 in
20:49 71.4 °F 69.0 °F 29.90 in NNW 1.0 mph 1.0 mph 92% 0.00 in
20:54 71.4 °F 69.3 °F 29.90 in NNW 1.0 mph 2.0 mph 93% 0.00 in
20:59 71.3 °F 69.2 °F 29.90 in NNW 1.0 mph 1.0 mph 93% 0.00 in
21:04 71.3 °F 69.2 °F 29.90 in NNW 1.0 mph 2.0 mph 93% 0.00 in
21:09 71.2 °F 69.1 °F 29.89 in North 1.0 mph 1.0 mph 93% 0.00 in
21:14 71.2 °F 69.1 °F 29.89 in NNW 1.0 mph 3.0 mph 93% 0.00 in
21:19 71.2 °F 69.1 °F 29.90 in Calm   3.0 mph 93% 0.00 in
21:24 71.1 °F 69.0 °F 29.90 in Calm   2.0 mph 93% 0.00 in
21:29 71.1 °F 69.0 °F 29.90 in NE 1.0 mph 1.0 mph 93% 0.00 in
21:34 71.0 °F 68.9 °F 29.90 in NE 1.0 mph 2.0 mph 93% 0.00 in
21:39 71.0 °F 68.9 °F 29.90 in NE 1.0 mph 2.0 mph 93% 0.00 in
21:44 71.0 °F 68.9 °F 29.90 in Calm   3.0 mph 93% 0.00 in
21:49 71.0 °F 68.9 °F 29.90 in Calm   1.0 mph 93% 0.00 in
21:54 71.0 °F 68.9 °F 29.90 in Calm     93% 0.00 in
21:59 70.9 °F 68.8 °F 29.91 in Calm     93% 0.00 in
22:04 70.9 °F 68.8 °F 29.91 in Calm     93% 0.00 in
22:09 70.8 °F 68.7 °F 29.91 in Calm     93% 0.00 in
22:14 70.8 °F 68.7 °F 29.91 in Calm     93% 0.00 in
22:19 70.8 °F 68.7 °F 29.91 in North 1.0 mph 2.0 mph 93% 0.00 in
22:24 70.8 °F 68.7 °F 29.91 in NE 1.0 mph 2.0 mph 93% 0.00 in
22:29 70.8 °F 68.7 °F 29.91 in Calm   1.0 mph 93% 0.00 in
22:34 70.8 °F 68.7 °F 29.91 in Calm   1.0 mph 93% 0.00 in
22:39 70.8 °F 68.7 °F 29.91 in Calm   1.0 mph 93% 0.00 in
22:44 70.8 °F 68.7 °F 29.91 in Calm   1.0 mph 93% 0.00 in
22:49 70.8 °F 68.7 °F 29.91 in NNW 1.0 mph 1.0 mph 93% 0.00 in
22:54 70.8 °F 68.7 °F 29.91 in Calm   2.0 mph 93% 0.00 in
22:59 70.7 °F 68.6 °F 29.91 in NW 1.0 mph 1.0 mph 93% 0.00 in
23:04 70.7 °F 68.6 °F 29.91 in NW 1.0 mph 1.0 mph 93% 0.00 in
23:09 70.6 °F 68.5 °F 29.91 in NW 1.0 mph 2.0 mph 93% 0.00 in
23:15 70.5 °F 68.4 °F 29.91 in NW 1.0 mph 1.0 mph 93% 0.00 in
23:20 70.5 °F 68.4 °F 29.92 in WNW 1.0 mph 1.0 mph 93% 0.00 in
23:25 70.5 °F 68.4 °F 29.92 in WNW 1.0 mph 1.0 mph 93% 0.00 in
23:30 70.6 °F 68.5 °F 29.92 in WNW 1.0 mph 1.0 mph 93% 0.00 in
23:35 70.6 °F 68.5 °F 29.92 in Calm   1.0 mph 93% 0.00 in
23:40 70.5 °F 68.4 °F 29.92 in Calm     93% 0.00 in
23:45 70.5 °F 68.4 °F 29.92 in WNW 1.0 mph 1.0 mph 93% 0.00 in
23:50 70.5 °F 68.4 °F 29.92 in WNW 1.0 mph 1.0 mph 93% 0.00 in
23:55 70.5 °F 68.4 °F 29.92 in Calm   2.0 mph 93% 0.00 in
Compliments of Weather Underground